Dixon, IL (61021)

1:30 AM CST on March 06, 2015 (GMT -0600)
Lee Co EMA Dixon Site | Change Station
CLOSE
Current Station
Personal Weather Station
Location: Dixon, IL
Elevation: 802 ft
Nearby Weather Stations

Elev 802 ft 41.86 °N, 89.52 °W | Updated 5 minutes ago

Clear
Clear
-0.5 °F
Feels Like -9 °F
N
4.0
Wind Variable Wind from SSW
Gusts 5.0 mph

Today
High -- | Low -- °F
--% Chance of Precip.
Yesterday
High -- | Low -- °F
Precip. -- in
6:25 AM 5:53 PM
Full, 100% visible
Pressure 30.49 in
Visibility 10.0 miles
Clouds Clear
Windchill -9 °F
Dew Point -4 °F
Humidity 85%
Rainfall in
Snow Depth Not available.
UV 0 out of 12
Pollen .50 out of 12
Air Quality Not available.
Flu Activity Not available.
METAR KSQI 060715Z AUTO 00000KT 10SM CLR M18/M21 A3049 RMK AO1

More Conditions Fewer Conditions

Pressure 30.49 in
Visibility 10.0 miles
Clouds Clear
Windchill -9 °F
Dew Point -4 °F
Humidity 85%
Rainfall in
Snow Depth Not available.
UV 0 out of 12
Pollen .50 out of 12
Air Quality Not available.
Flu Activity Not available.
METAR KSQI 060715Z AUTO 00000KT 10SM CLR M18/M21 A3049 RMK AO1

More Conditions Fewer Conditions

10-Day Weather Forecast

Almanac

Astronomy

Mar. 06, 2015 Rise Set
Actual Time
Civil Twilight
Nautical Twilight
Astronomical Twilight
Moon
Length of Visible Light
Length of Day
Tomorrow will be .
, % of the Moon is Illuminated

Today's Extremes

State Highs State Lows

Community

WunderPhotos

Upload Photos

1,803,199 photos uploaded!

WunderBlogs® & News

Nearby

Air Quality

  Air Quality AQ Index Pollutant
Not available.

Snow Depth

Station Depth Elevation

Earthquake Activity

City Distance Mag. Time & Date
Minimum magnitude displayed is 2.5.

Coastal Water Temperatures

Place Temperature

Nearby Weather Stations